LIME/BGY METAR and TAF weather

Enter ICAO airport designator
Station Type Date Time Source
LIME METAR 2019/08/17 10:50 UTC NOAA

LIME 171050Z 14004KT 080V200 CAVOK 26/16 Q1017 NOSIG


Station Type Date Time Source
LIME Decoded METAR 2019/08/17 10:50 UTC NOAA

Station name not available
Aug 17, 2019 - 06:50 AM EDT / 2019.08.17 1050 UTC
Wind: from the SE (140 degrees) at 5 MPH (4 KT) (direction variable):0
Visibility: greater than 7 mile(s):0
Temperature: 78 F (26 C)
Dew Point: 60 F (16 C)
Relative Humidity: 54%
Pressure (altimeter): 30.03 in. Hg (1017 hPa)
ob: LIME 171050Z 14004KT 080V200 CAVOK 26/16 Q1017 NOSIG
cycle: 11

Station Type Date Time Source
LIME TAF 2019/08/17 06:21 UTC NOAA

TAF LIME 170500Z 1706/1806 VRB05KT CAVOK

Example: see airport list